Grant County Airport


Codes: KSVC/SVC
Name: Grant County Airport
City: Silver City
Country: United States
Elevation: 5446 ft.
Wikipedia:

Photos at Grant County Airport


   Photos courtesy of SpottingLog. You can add your own sightings and photos by signing up for a free trial today.



No photos found.

Weather at Grant County Airport


Time (UTC)DescriptionTempratureWindCloud coverageVisibilityPressureHumidity
23-May-2024 21:00Clear Sky27°C25 mph, W0%10000m1016hPa4%
24-May-2024 00:00Clear Sky26°C25 mph, W0%10000m1013hPa5%
24-May-2024 03:00Clear Sky22°C16 mph, W3%10000m1011hPa8%
24-May-2024 06:00Scattered Clouds16°C11 mph, NW46%10000m1011hPa13%
24-May-2024 09:00Overcast Clouds14°C9 mph, NW100%10000m1011hPa16%
24-May-2024 12:00Overcast Clouds13°C7 mph, NW100%10000m1012hPa20%
24-May-2024 15:00Scattered Clouds19°C7 mph, W50%10000m1012hPa17%
24-May-2024 18:00Scattered Clouds25°C13 mph, SW30%10000m1010hPa11%
24-May-2024 21:00Clear Sky27°C18 mph, SW6%10000m1008hPa8%
25-May-2024 00:00Few Clouds27°C18 mph, W11%10000m1006hPa7%
25-May-2024 03:00Clear Sky20°C11 mph, W5%10000m1008hPa12%
25-May-2024 06:00Clear Sky18°C16 mph, W5%10000m1010hPa15%
25-May-2024 09:00Clear Sky15°C13 mph, W2%10000m1010hPa24%
25-May-2024 12:00Clear Sky14°C20 mph, W1%10000m1010hPa23%
25-May-2024 15:00Clear Sky19°C18 mph, W0%10000m1010hPa18%
25-May-2024 18:00Clear Sky23°C25 mph, W0%10000m1009hPa11%
25-May-2024 21:00Clear Sky26°C29 mph, W2%10000m1007hPa10%
26-May-2024 00:00Clear Sky25°C29 mph, W1%10000m1007hPa12%
26-May-2024 03:00Clear Sky19°C20 mph, NW0%10000m1010hPa21%
26-May-2024 06:00Clear Sky15°C13 mph, NW0%10000m1013hPa31%
26-May-2024 09:00Clear Sky13°C9 mph, NW0%10000m1013hPa36%
26-May-2024 12:00Clear Sky12°C9 mph, NW0%10000m1014hPa39%
26-May-2024 15:00Clear Sky19°C11 mph, NW0%10000m1014hPa22%
26-May-2024 18:00Clear Sky24°C13 mph, W0%10000m1012hPa14%
26-May-2024 21:00Clear Sky27°C18 mph, W0%10000m1010hPa11%
27-May-2024 00:00Clear Sky26°C18 mph, W0%10000m1009hPa12%
27-May-2024 03:00Clear Sky20°C11 mph, NW0%10000m1012hPa19%
27-May-2024 06:00Clear Sky18°C11 mph, NW0%10000m1014hPa21%
27-May-2024 09:00Clear Sky16°C11 mph, NW0%10000m1014hPa24%
27-May-2024 12:00Clear Sky15°C9 mph, NW0%10000m1016hPa25%
27-May-2024 15:00Clear Sky22°C7 mph, NW0%10000m1015hPa15%
27-May-2024 18:00Clear Sky27°C7 mph, SW0%10000m1014hPa8%
27-May-2024 21:00Clear Sky29°C16 mph, SW2%10000m1011hPa8%
28-May-2024 00:00Clear Sky29°C13 mph, W1%10000m1011hPa7%
28-May-2024 03:00Broken Clouds22°C9 mph, NW76%10000m1013hPa10%
28-May-2024 06:00Broken Clouds20°C7 mph, N81%10000m1014hPa11%
28-May-2024 09:00Overcast Clouds19°C7 mph, N99%10000m1014hPa14%
28-May-2024 12:00Broken Clouds17°C7 mph, N64%10000m1015hPa18%
28-May-2024 15:00Clear Sky25°C4 mph, NW0%10000m1015hPa12%
28-May-2024 18:00Clear Sky29°C11 mph, SW0%10000m1013hPa8%